Terminal Aerodrome Forecast
Issued by NWS Wakefield, VA

Home | Current Version | Previous Version | Text Only | Print | Product List | Glossary On
Versions: 1 2 3 4 5 6 7 8 9 10 11 12 13 14 15 16 17 18 19 20 21
000
FTUS41 KAKQ 271413 AAA
TAFSBY
TAF AMD
KSBY 271413Z 2714/2812 19010KT P6SM BKN070
     FM271800 20011KT P6SM BKN050
     FM280100 18007KT P6SM BKN120
     FM280900 20006KT P6SM BKN020=

USA.gov is the U.S. government's official web portal to all federal, state and local government web resources and services.